createdAt,value
2022-12-25T00:00:05.738Z,56.71
2022-12-25T00:00:35.742Z,56.51
2022-12-25T00:01:05.747Z,56.61
2022-12-25T00:01:35.681Z,56.61
2022-12-25T00:02:05.675Z,56.61
2022-12-25T00:02:35.811Z,56.71
2022-12-25T00:03:05.827Z,56.51
2022-12-25T00:03:35.830Z,56.51
2022-12-25T00:04:05.778Z,56.61
2022-12-25T00:04:35.750Z,56.71
2022-12-25T00:05:05.748Z,56.71
2022-12-25T00:05:35.783Z,56.61
2022-12-25T00:06:05.766Z,56.40
2022-12-25T00:06:35.791Z,56.51
2022-12-25T00:07:05.795Z,56.61
2022-12-25T00:07:35.839Z,56.61
2022-12-25T00:08:05.815Z,56.61
2022-12-25T00:08:35.816Z,56.71
2022-12-25T00:09:05.827Z,56.61
2022-12-25T00:09:35.800Z,56.51
2022-12-25T00:10:05.816Z,56.71
2022-12-25T00:10:42.922Z,56.71
2022-12-25T00:11:06.816Z,56.51
2022-12-25T00:11:35.836Z,56.61
2022-12-25T00:12:05.862Z,56.71
2022-12-25T00:12:35.849Z,56.61
2022-12-25T00:13:05.862Z,56.81
2022-12-25T00:13:35.869Z,56.40
2022-12-25T00:14:05.869Z,56.71
2022-12-25T00:14:35.913Z,56.71
2022-12-25T00:15:05.912Z,56.81
2022-12-25T00:15:35.909Z,56.40
2022-12-25T00:16:06.001Z,56.61
2022-12-25T00:16:36.002Z,56.61
2022-12-25T00:17:05.947Z,56.81
2022-12-25T00:17:35.933Z,56.51
2022-12-25T00:18:05.935Z,56.40
2022-12-25T00:18:35.950Z,56.71
2022-12-25T00:19:05.973Z,56.71
2022-12-25T00:19:35.968Z,56.51
2022-12-25T00:20:05.967Z,56.61
2022-12-25T00:20:36.003Z,56.51
2022-12-25T00:21:06.061Z,56.81
2022-12-25T00:21:36.013Z,56.51
2022-12-25T00:22:06.018Z,56.40
2022-12-25T00:22:36.018Z,56.71
2022-12-25T00:23:06.016Z,56.81
2022-12-25T00:23:36.028Z,56.61
2022-12-25T00:24:06.055Z,56.61
2022-12-25T00:24:36.051Z,56.71
2022-12-25T00:25:06.055Z,56.40
2022-12-25T00:25:36.077Z,56.51
2022-12-25T00:26:06.089Z,56.40
2022-12-25T00:26:36.083Z,56.61
2022-12-25T00:27:06.098Z,56.40
2022-12-25T00:27:36.094Z,56.71
2022-12-25T00:28:06.108Z,56.81
2022-12-25T00:28:36.193Z,56.40
2022-12-25T00:29:06.124Z,56.51
2022-12-25T00:29:36.138Z,56.81
2022-12-25T00:30:06.171Z,56.61
2022-12-25T00:30:36.165Z,56.61
2022-12-25T00:31:06.237Z,56.71
2022-12-25T00:31:36.232Z,56.71
2022-12-25T00:32:06.213Z,56.51
2022-12-25T00:32:36.187Z,56.30
2022-12-25T00:33:06.203Z,56.61
2022-12-25T00:33:36.203Z,56.61
2022-12-25T00:34:06.234Z,56.71
2022-12-25T00:34:36.231Z,56.61
2022-12-25T00:35:06.237Z,56.40
2022-12-25T00:35:36.247Z,56.61
2022-12-25T00:36:06.284Z,56.40
2022-12-25T00:36:41.405Z,56.61
2022-12-25T00:37:07.278Z,56.71
2022-12-25T00:37:36.273Z,56.51
2022-12-25T00:38:06.311Z,56.61
2022-12-25T00:38:36.301Z,56.40
2022-12-25T00:39:06.339Z,56.51
2022-12-25T00:39:36.312Z,56.61
2022-12-25T00:40:06.335Z,56.61
2022-12-25T00:40:36.327Z,56.51
2022-12-25T00:41:06.353Z,56.71
2022-12-25T00:41:36.377Z,56.30
2022-12-25T00:42:06.387Z,56.61
2022-12-25T00:42:36.381Z,56.71
2022-12-25T00:43:06.373Z,56.30
2022-12-25T00:43:36.390Z,56.40
2022-12-25T00:44:06.465Z,56.51
2022-12-25T00:44:36.398Z,56.30
2022-12-25T00:45:06.431Z,56.61
2022-12-25T00:45:36.486Z,56.51
2022-12-25T00:46:06.560Z,56.51
2022-12-25T00:46:36.484Z,56.40
2022-12-25T00:47:06.541Z,56.40
2022-12-25T00:47:36.455Z,56.51
2022-12-25T00:48:06.460Z,56.61
2022-12-25T00:48:36.481Z,56.51
2022-12-25T00:49:06.507Z,56.71
2022-12-25T00:49:36.488Z,56.30
2022-12-25T00:50:06.498Z,56.40
2022-12-25T00:50:36.504Z,56.40
2022-12-25T00:51:06.524Z,56.51
2022-12-25T00:51:36.516Z,56.51
2022-12-25T00:52:06.551Z,56.30
2022-12-25T00:52:36.540Z,56.30
2022-12-25T00:53:06.549Z,56.40
2022-12-25T00:53:36.555Z,56.51
2022-12-25T00:54:06.612Z,56.43
2022-12-25T00:54:36.572Z,56.51
2022-12-25T00:55:06.590Z,56.61
2022-12-25T00:55:36.598Z,56.51
2022-12-25T00:56:06.614Z,56.20
2022-12-25T00:56:36.639Z,56.61
2022-12-25T00:57:06.655Z,56.30
2022-12-25T00:57:36.665Z,56.40
2022-12-25T00:58:06.646Z,56.30
2022-12-25T00:58:36.642Z,56.30
2022-12-25T00:59:06.713Z,56.30
2022-12-25T00:59:36.662Z,56.40
2022-12-25T01:00:06.706Z,56.30
2022-12-25T01:00:36.695Z,56.30
2022-12-25T01:01:06.822Z,56.20
2022-12-25T01:01:36.851Z,56.30
2022-12-25T01:02:06.925Z,56.51
2022-12-25T01:02:37.012Z,56.51
2022-12-25T01:03:06.762Z,56.51
2022-12-25T01:03:36.751Z,56.40
2022-12-25T01:04:06.793Z,56.51
2022-12-25T01:04:36.765Z,56.30
2022-12-25T01:05:06.796Z,56.40
2022-12-25T01:05:36.797Z,56.30
2022-12-25T01:06:06.801Z,56.53
2022-12-25T01:06:36.808Z,56.51
2022-12-25T01:07:06.832Z,56.40
2022-12-25T01:07:36.846Z,56.43
2022-12-25T01:08:06.847Z,56.51
2022-12-25T01:08:36.848Z,56.51
2022-12-25T01:09:06.902Z,56.30
2022-12-25T01:09:36.878Z,56.51
2022-12-25T01:10:06.922Z,56.51
2022-12-25T01:10:36.892Z,56.40
2022-12-25T01:11:06.920Z,56.51
2022-12-25T01:11:36.911Z,56.40
2022-12-25T01:12:06.942Z,56.40
2022-12-25T01:12:36.942Z,56.20
2022-12-25T01:13:06.953Z,56.51
2022-12-25T01:13:36.950Z,56.40
2022-12-25T01:14:06.968Z,56.71
2022-12-25T01:14:37.004Z,56.43
2022-12-25T01:15:06.996Z,56.61
2022-12-25T01:15:37.065Z,56.30
2022-12-25T01:16:07.062Z,56.61
2022-12-25T01:16:37.057Z,56.40
2022-12-25T01:17:07.034Z,56.51
2022-12-25T01:17:37.053Z,56.51
2022-12-25T01:18:08.304Z,56.61
2022-12-25T01:18:37.045Z,56.40
2022-12-25T01:19:07.072Z,56.51
2022-12-25T01:19:37.066Z,56.51
2022-12-25T01:20:07.084Z,56.40
2022-12-25T01:20:37.104Z,56.51
2022-12-25T01:21:07.107Z,56.51
2022-12-25T01:21:37.129Z,56.61
2022-12-25T01:22:07.128Z,56.51
2022-12-25T01:22:37.155Z,56.40
2022-12-25T01:23:07.175Z,56.51
2022-12-25T01:23:37.164Z,56.30
2022-12-25T01:24:07.192Z,56.51
2022-12-25T01:24:37.187Z,56.61
2022-12-25T01:25:07.218Z,56.61
2022-12-25T01:25:37.195Z,56.40
2022-12-25T01:26:07.213Z,56.81
2022-12-25T01:26:37.217Z,56.40
2022-12-25T01:27:07.236Z,56.40
2022-12-25T01:27:37.242Z,56.40
2022-12-25T01:28:07.251Z,56.71
2022-12-25T01:28:37.234Z,56.51
2022-12-25T01:29:07.255Z,56.51
2022-12-25T01:29:37.256Z,56.51
2022-12-25T01:30:07.273Z,56.71
2022-12-25T01:30:37.265Z,56.81
2022-12-25T01:31:07.284Z,56.61
2022-12-25T01:31:37.348Z,56.61
2022-12-25T01:32:07.334Z,56.51
2022-12-25T01:32:37.304Z,56.51
2022-12-25T01:33:07.315Z,56.71
2022-12-25T01:33:37.314Z,56.61
2022-12-25T01:34:07.331Z,56.51
2022-12-25T01:34:37.338Z,56.51
2022-12-25T01:35:07.362Z,56.40
2022-12-25T01:35:37.347Z,56.40
2022-12-25T01:36:07.375Z,56.71
2022-12-25T01:36:37.383Z,56.51
2022-12-25T01:37:07.401Z,56.71
2022-12-25T01:37:37.378Z,56.51
2022-12-25T01:38:07.399Z,56.40
2022-12-25T01:38:37.414Z,56.51
2022-12-25T01:39:07.410Z,56.51
2022-12-25T01:39:37.424Z,56.40
2022-12-25T01:40:07.433Z,56.71
2022-12-25T01:40:37.423Z,56.81
2022-12-25T01:41:07.449Z,56.30
2022-12-25T01:41:37.436Z,56.40
2022-12-25T01:42:07.453Z,56.40
2022-12-25T01:42:37.452Z,56.51
2022-12-25T01:43:07.467Z,56.40
2022-12-25T01:43:37.465Z,56.71
2022-12-25T01:44:07.511Z,56.61
2022-12-25T01:44:37.480Z,56.51
2022-12-25T01:45:07.511Z,56.40
2022-12-25T01:45:37.530Z,56.51
2022-12-25T01:46:07.582Z,56.40
2022-12-25T01:46:37.506Z,56.61
2022-12-25T01:47:07.493Z,56.71
2022-12-25T01:47:37.503Z,56.51
2022-12-25T01:48:07.547Z,56.81
2022-12-25T01:48:37.515Z,56.71
2022-12-25T01:49:07.547Z,56.51
2022-12-25T01:49:37.540Z,56.71
2022-12-25T01:50:07.545Z,56.71
2022-12-25T01:50:37.544Z,56.61
2022-12-25T01:51:07.566Z,56.61
2022-12-25T01:51:37.569Z,56.71
2022-12-25T01:52:07.575Z,56.81
2022-12-25T01:52:37.577Z,56.71
2022-12-25T01:53:07.594Z,56.51
2022-12-25T01:53:37.627Z,56.71
2022-12-25T01:54:07.631Z,56.51
2022-12-25T01:54:37.606Z,56.61
2022-12-25T01:55:07.623Z,56.61
2022-12-25T01:55:37.627Z,56.81
2022-12-25T01:56:07.679Z,56.51
2022-12-25T01:56:37.634Z,56.40
2022-12-25T01:57:07.655Z,56.51
2022-12-25T01:57:37.669Z,56.81
2022-12-25T01:58:07.673Z,56.40
2022-12-25T01:58:37.673Z,56.71
2022-12-25T01:59:07.707Z,56.61
2022-12-25T01:59:37.701Z,56.61
2022-12-25T02:00:07.705Z,56.71
2022-12-25T02:00:37.797Z,56.71
2022-12-25T02:01:07.789Z,56.61
2022-12-25T02:01:37.909Z,56.81
2022-12-25T02:02:07.906Z,56.61
2022-12-25T02:02:37.873Z,56.51
2022-12-25T02:03:07.891Z,56.61
2022-12-25T02:03:37.789Z,56.71
2022-12-25T02:04:07.784Z,56.81
2022-12-25T02:04:37.835Z,56.40
2022-12-25T02:05:07.807Z,56.71
2022-12-25T02:05:37.823Z,56.81
2022-12-25T02:06:07.836Z,56.51
2022-12-25T02:06:37.849Z,56.63
2022-12-25T02:07:07.866Z,56.51
2022-12-25T02:07:37.868Z,56.71
2022-12-25T02:08:07.883Z,56.40
2022-12-25T02:08:37.888Z,56.61
2022-12-25T02:09:07.912Z,56.81
2022-12-25T02:09:37.949Z,56.40
2022-12-25T02:10:07.901Z,56.71
2022-12-25T02:10:37.936Z,56.61
2022-12-25T02:11:07.932Z,56.51
2022-12-25T02:11:37.937Z,56.51
2022-12-25T02:12:07.938Z,56.61
2022-12-25T02:12:37.981Z,56.51
2022-12-25T02:13:07.964Z,56.71
2022-12-25T02:13:37.992Z,56.61
2022-12-25T02:14:07.975Z,56.51
2022-12-25T02:14:38.002Z,56.71
2022-12-25T02:15:08.014Z,56.81
2022-12-25T02:15:38.012Z,56.71
2022-12-25T02:16:08.059Z,56.61
2022-12-25T02:16:58.278Z,56.40
2022-12-25T02:17:09.093Z,56.71
2022-12-25T02:17:38.040Z,56.73
2022-12-25T02:18:08.039Z,56.81
2022-12-25T02:18:38.072Z,56.71
2022-12-25T02:19:08.057Z,56.40
2022-12-25T02:19:38.092Z,56.71
2022-12-25T02:20:08.074Z,56.51
2022-12-25T02:20:38.084Z,56.61
2022-12-25T02:21:08.077Z,56.61
2022-12-25T02:21:38.122Z,56.51
2022-12-25T02:22:08.098Z,56.61
2022-12-25T02:22:38.116Z,56.71
2022-12-25T02:23:08.115Z,56.81
2022-12-25T02:23:38.137Z,56.40
2022-12-25T02:24:08.138Z,56.61
2022-12-25T02:24:38.153Z,56.40
2022-12-25T02:25:08.197Z,56.71
2022-12-25T02:25:38.182Z,56.61
2022-12-25T02:26:08.187Z,56.61
2022-12-25T02:26:38.210Z,56.51
2022-12-25T02:27:08.190Z,56.71
2022-12-25T02:27:38.212Z,56.51
2022-12-25T02:28:08.210Z,56.71
2022-12-25T02:28:38.233Z,56.51
2022-12-25T02:29:08.228Z,56.71
2022-12-25T02:29:38.269Z,56.71
2022-12-25T02:30:08.262Z,56.71
2022-12-25T02:30:38.270Z,56.81
2022-12-25T02:31:08.267Z,56.81
2022-12-25T02:31:38.318Z,56.71
2022-12-25T02:32:08.347Z,56.51
2022-12-25T02:32:38.305Z,56.61
2022-12-25T02:33:08.325Z,56.61
2022-12-25T02:33:38.339Z,56.71
2022-12-25T02:34:08.340Z,56.51
2022-12-25T02:34:38.341Z,56.71
2022-12-25T02:35:08.363Z,56.51
2022-12-25T02:35:38.364Z,56.51
2022-12-25T02:36:08.387Z,56.61
2022-12-25T02:36:38.386Z,56.61
2022-12-25T02:37:08.401Z,56.61
2022-12-25T02:37:38.419Z,56.51
2022-12-25T02:38:08.450Z,56.51
2022-12-25T02:38:38.423Z,56.71
2022-12-25T02:39:08.481Z,56.51
2022-12-25T02:39:38.450Z,56.71
2022-12-25T02:40:08.455Z,56.71
2022-12-25T02:40:38.471Z,56.91
2022-12-25T02:41:08.473Z,56.61
2022-12-25T02:41:38.478Z,56.71
2022-12-25T02:42:08.498Z,56.51
2022-12-25T02:42:38.522Z,56.40
2022-12-25T02:43:08.520Z,56.71
2022-12-25T02:43:38.524Z,56.81
2022-12-25T02:44:08.536Z,56.51
2022-12-25T02:44:38.546Z,56.51
2022-12-25T02:45:08.561Z,56.51
2022-12-25T02:45:38.587Z,56.40
2022-12-25T02:46:08.736Z,56.51
2022-12-25T02:46:38.587Z,56.81
2022-12-25T02:47:08.598Z,56.51
2022-12-25T02:47:38.623Z,56.40
2022-12-25T02:48:08.624Z,57.01
2022-12-25T02:48:38.613Z,56.91
2022-12-25T02:49:08.629Z,56.51
2022-12-25T02:49:38.677Z,56.81
2022-12-25T02:50:08.644Z,56.91
2022-12-25T02:50:38.665Z,56.40
2022-12-25T02:51:08.689Z,56.61
2022-12-25T02:51:38.674Z,56.91
2022-12-25T02:52:08.675Z,56.51
2022-12-25T02:52:38.682Z,56.61
2022-12-25T02:53:08.696Z,56.40
2022-12-25T02:53:38.701Z,56.51
2022-12-25T02:54:08.729Z,56.61
2022-12-25T02:54:38.715Z,56.81
2022-12-25T02:55:08.733Z,56.81
2022-12-25T02:55:38.737Z,56.71
2022-12-25T02:56:08.781Z,56.71
2022-12-25T02:56:38.759Z,56.51
2022-12-25T02:57:08.774Z,56.84
2022-12-25T02:57:38.782Z,56.81
2022-12-25T02:58:08.799Z,56.61
2022-12-25T02:58:38.819Z,56.91
2022-12-25T02:59:08.820Z,56.61
2022-12-25T02:59:38.825Z,56.91
2022-12-25T03:00:08.843Z,56.61
2022-12-25T03:00:38.868Z,56.91
2022-12-25T03:01:08.922Z,56.61
2022-12-25T03:01:39.007Z,56.61
2022-12-25T03:02:08.968Z,56.63
2022-12-25T03:02:38.884Z,56.91
2022-12-25T03:03:08.923Z,56.61
2022-12-25T03:03:39.029Z,56.61
2022-12-25T03:04:08.926Z,56.71
2022-12-25T03:04:38.957Z,56.73
2022-12-25T03:05:08.950Z,56.91
2022-12-25T03:05:38.971Z,56.61
2022-12-25T03:06:08.977Z,56.61
2022-12-25T03:06:38.975Z,56.91
2022-12-25T03:07:09.015Z,56.81
2022-12-25T03:07:39.007Z,57.01
2022-12-25T03:08:09.023Z,56.71
2022-12-25T03:08:39.032Z,56.91
2022-12-25T03:09:09.045Z,57.11
2022-12-25T03:09:39.069Z,56.81
2022-12-25T03:10:09.073Z,56.81
2022-12-25T03:10:39.093Z,57.01
2022-12-25T03:11:09.104Z,56.91
2022-12-25T03:11:39.108Z,57.11
2022-12-25T03:12:09.109Z,56.81
2022-12-25T03:12:39.175Z,56.91
2022-12-25T03:13:09.125Z,56.91
2022-12-25T03:13:39.139Z,57.04
2022-12-25T03:14:09.151Z,56.71
2022-12-25T03:14:39.179Z,56.71
2022-12-25T03:15:09.166Z,57.01
2022-12-25T03:15:39.175Z,56.61
2022-12-25T03:16:09.188Z,56.81
2022-12-25T03:16:39.251Z,56.71
2022-12-25T03:17:09.304Z,56.81
2022-12-25T03:17:39.216Z,56.73
2022-12-25T03:18:09.239Z,57.01
2022-12-25T03:18:39.263Z,56.81
2022-12-25T03:19:09.257Z,56.81
2022-12-25T03:19:39.264Z,56.81
2022-12-25T03:20:09.279Z,57.11
2022-12-25T03:20:39.281Z,57.04
2022-12-25T03:21:09.300Z,57.01
2022-12-25T03:21:39.307Z,57.11
2022-12-25T03:22:09.324Z,56.94
2022-12-25T03:22:39.331Z,56.91
2022-12-25T03:23:09.351Z,56.61
2022-12-25T03:23:39.383Z,57.11
2022-12-25T03:24:09.381Z,56.84
2022-12-25T03:24:39.372Z,56.91
2022-12-25T03:25:09.391Z,56.71
2022-12-25T03:25:39.392Z,57.04
2022-12-25T03:26:09.412Z,56.94
2022-12-25T03:26:39.432Z,56.91
2022-12-25T03:27:09.451Z,57.11
2022-12-25T03:27:39.435Z,56.71
2022-12-25T03:28:09.453Z,57.01
2022-12-25T03:28:39.451Z,56.51
2022-12-25T03:29:09.471Z,57.01
2022-12-25T03:29:39.491Z,56.71
2022-12-25T03:30:09.489Z,56.91
2022-12-25T03:30:39.524Z,56.94
2022-12-25T03:31:09.580Z,57.04
2022-12-25T03:31:39.508Z,56.91
2022-12-25T03:32:09.520Z,56.91
2022-12-25T03:32:39.530Z,56.91
2022-12-25T03:33:23.202Z,56.91
2022-12-25T03:33:45.515Z,56.73
2022-12-25T03:34:10.594Z,56.91
2022-12-25T03:34:39.566Z,57.11
2022-12-25T03:35:09.586Z,56.81
2022-12-25T03:35:39.598Z,56.61
2022-12-25T03:36:09.618Z,57.01
2022-12-25T03:36:39.631Z,56.81
2022-12-25T03:37:09.655Z,56.84
2022-12-25T03:37:39.643Z,57.11
2022-12-25T03:38:09.685Z,56.94
2022-12-25T03:38:39.663Z,56.91
2022-12-25T03:39:09.703Z,56.81
2022-12-25T03:39:39.690Z,56.84
2022-12-25T03:40:09.713Z,57.01
2022-12-25T03:40:39.718Z,56.91
2022-12-25T03:41:09.740Z,56.73
2022-12-25T03:41:39.769Z,56.94
2022-12-25T03:42:09.783Z,56.81
2022-12-25T03:42:39.791Z,56.71
2022-12-25T03:43:09.809Z,56.81
2022-12-25T03:43:39.802Z,56.91
2022-12-25T03:44:09.823Z,56.71
2022-12-25T03:44:39.827Z,56.71
2022-12-25T03:45:09.844Z,56.91
2022-12-25T03:45:39.874Z,57.11
2022-12-25T03:46:09.971Z,56.81
2022-12-25T03:46:40.007Z,57.01
2022-12-25T03:47:09.902Z,56.81
2022-12-25T03:47:39.908Z,56.81
2022-12-25T03:48:09.931Z,56.91
2022-12-25T03:48:39.934Z,56.71
2022-12-25T03:49:09.961Z,56.71
2022-12-25T03:49:39.956Z,56.81
2022-12-25T03:50:09.983Z,56.91
2022-12-25T03:50:39.987Z,56.91
2022-12-25T03:51:10.024Z,56.71
2022-12-25T03:51:40.000Z,56.94
2022-12-25T03:52:10.024Z,56.84
2022-12-25T03:52:40.030Z,56.73
2022-12-25T03:53:10.043Z,57.14
2022-12-25T03:53:40.038Z,56.71
2022-12-25T03:54:10.064Z,56.84
2022-12-25T03:54:40.094Z,56.91
2022-12-25T03:55:10.112Z,56.73
2022-12-25T03:55:40.082Z,56.71
2022-12-25T03:56:10.101Z,57.11
2022-12-25T03:56:40.108Z,56.84
2022-12-25T03:57:10.124Z,56.94
2022-12-25T03:57:40.136Z,56.91
2022-12-25T03:58:10.165Z,56.71
2022-12-25T03:58:40.155Z,56.91
2022-12-25T03:59:10.192Z,56.94
2022-12-25T03:59:40.177Z,56.61
2022-12-25T04:00:10.222Z,56.81
2022-12-25T04:00:40.194Z,56.94
2022-12-25T04:01:10.282Z,57.04
2022-12-25T04:01:40.349Z,56.84
2022-12-25T04:02:10.624Z,56.94
2022-12-25T04:02:40.593Z,56.73
2022-12-25T04:03:10.294Z,57.11
2022-12-25T04:03:40.314Z,57.04
2022-12-25T04:04:10.290Z,56.94
2022-12-25T04:04:40.313Z,56.84
2022-12-25T04:05:10.332Z,56.94
2022-12-25T04:05:40.319Z,57.11
2022-12-25T04:06:10.345Z,57.24
2022-12-25T04:06:40.349Z,56.91
2022-12-25T04:07:10.360Z,56.91
2022-12-25T04:07:40.395Z,57.11
2022-12-25T04:08:10.375Z,57.11
2022-12-25T04:08:40.381Z,57.01
2022-12-25T04:09:10.418Z,56.94
2022-12-25T04:09:40.406Z,56.91
2022-12-25T04:10:10.429Z,57.14
2022-12-25T04:10:40.431Z,56.91
2022-12-25T04:11:10.451Z,56.94
2022-12-25T04:11:40.510Z,56.94
2022-12-25T04:12:10.490Z,56.91
2022-12-25T04:12:40.489Z,56.94
2022-12-25T04:13:10.516Z,57.04
2022-12-25T04:13:40.562Z,57.01
2022-12-25T04:14:10.579Z,56.94
2022-12-25T04:14:40.545Z,57.01
2022-12-25T04:15:10.582Z,57.01
2022-12-25T04:15:40.624Z,56.91
2022-12-25T04:16:10.671Z,57.11
2022-12-25T04:16:40.627Z,57.11
2022-12-25T04:17:10.629Z,57.21
2022-12-25T04:17:40.643Z,57.04
2022-12-25T04:18:10.666Z,56.91
2022-12-25T04:18:40.686Z,56.81
2022-12-25T04:19:10.705Z,56.71
2022-12-25T04:19:40.686Z,57.01
2022-12-25T04:20:10.695Z,56.71
2022-12-25T04:20:40.731Z,56.81
2022-12-25T04:21:10.726Z,56.94
2022-12-25T04:21:40.741Z,57.04
2022-12-25T04:22:10.790Z,56.91
2022-12-25T04:22:40.761Z,57.11
2022-12-25T04:23:10.792Z,56.73
2022-12-25T04:23:40.813Z,56.94
2022-12-25T04:24:10.808Z,56.91
2022-12-25T04:24:40.834Z,56.84
2022-12-25T04:25:10.830Z,57.04
2022-12-25T04:25:40.848Z,56.91
2022-12-25T04:26:10.860Z,57.14
2022-12-25T04:26:40.879Z,56.94
2022-12-25T04:27:10.887Z,56.81
2022-12-25T04:27:40.941Z,57.24
2022-12-25T04:28:10.922Z,57.11
2022-12-25T04:28:40.928Z,57.14
2022-12-25T04:29:10.990Z,57.01
2022-12-25T04:29:40.954Z,57.11
2022-12-25T04:30:11.002Z,57.04
2022-12-25T04:30:40.995Z,57.04
2022-12-25T04:31:11.080Z,56.94
2022-12-25T04:31:41.103Z,56.71
2022-12-25T04:32:11.052Z,57.31
2022-12-25T04:32:41.039Z,57.21
2022-12-25T04:33:11.056Z,57.01
2022-12-25T04:33:41.062Z,56.91
2022-12-25T04:34:11.082Z,57.01
2022-12-25T04:34:41.089Z,57.21
2022-12-25T04:35:11.132Z,57.42
2022-12-25T04:35:41.119Z,57.24
2022-12-25T04:36:11.164Z,57.11
2022-12-25T04:36:41.158Z,57.01
2022-12-25T04:37:11.151Z,57.21
2022-12-25T04:37:41.158Z,56.94
2022-12-25T04:38:11.177Z,57.01
2022-12-25T04:38:41.192Z,57.44
2022-12-25T04:39:11.214Z,57.21
2022-12-25T04:39:41.217Z,56.81
2022-12-25T04:40:11.240Z,56.91
2022-12-25T04:40:41.252Z,56.94
2022-12-25T04:41:11.281Z,57.21
2022-12-25T04:41:41.273Z,56.84
2022-12-25T04:42:11.283Z,57.14
2022-12-25T04:42:41.314Z,57.01
2022-12-25T04:43:11.299Z,57.01
2022-12-25T04:43:41.316Z,57.01
2022-12-25T04:44:11.334Z,56.94
2022-12-25T04:44:41.376Z,56.73
2022-12-25T04:45:11.355Z,57.24
2022-12-25T04:45:41.384Z,57.01
2022-12-25T04:46:11.443Z,57.14
2022-12-25T04:46:41.476Z,56.91
2022-12-25T04:47:11.907Z,57.24
2022-12-25T04:47:41.423Z,57.04
2022-12-25T04:48:11.438Z,57.21
2022-12-25T04:48:41.451Z,56.81
2022-12-25T04:49:11.452Z,57.31
2022-12-25T04:49:41.471Z,57.24
2022-12-25T04:50:11.473Z,57.21
2022-12-25T04:50:41.501Z,57.21
2022-12-25T04:51:11.501Z,57.24
2022-12-25T04:51:41.548Z,57.21
2022-12-25T04:52:11.535Z,57.31
2022-12-25T04:52:41.545Z,57.24
2022-12-25T04:53:11.551Z,57.04
2022-12-25T04:53:41.572Z,57.42
2022-12-25T04:54:11.574Z,57.42
2022-12-25T04:54:41.637Z,57.01
2022-12-25T04:55:11.646Z,57.04
2022-12-25T04:55:41.624Z,57.04
2022-12-25T04:56:11.630Z,56.81
2022-12-25T04:56:45.832Z,57.01
2022-12-25T04:57:11.645Z,56.81
2022-12-25T04:57:41.674Z,57.24
2022-12-25T04:58:11.660Z,57.01
2022-12-25T04:58:41.700Z,57.11
2022-12-25T04:59:11.697Z,56.81
2022-12-25T04:59:41.697Z,56.81
2022-12-25T05:00:11.716Z,57.42
2022-12-25T05:00:41.714Z,57.01
2022-12-25T05:01:11.767Z,57.21
2022-12-25T05:01:41.857Z,56.91
2022-12-25T05:02:11.902Z,57.01
2022-12-25T05:02:41.965Z,57.01
2022-12-25T05:03:11.939Z,56.91
2022-12-25T05:03:41.843Z,57.01
2022-12-25T05:04:11.793Z,57.24
2022-12-25T05:04:41.791Z,57.11
2022-12-25T05:05:11.795Z,57.01
2022-12-25T05:05:41.819Z,57.52
2022-12-25T05:06:11.833Z,56.94
2022-12-25T05:06:41.830Z,57.24
2022-12-25T05:07:11.841Z,57.42
2022-12-25T05:07:41.856Z,57.24
2022-12-25T05:08:11.860Z,57.42
2022-12-25T05:08:41.878Z,57.34
2022-12-25T05:09:11.881Z,57.11
2022-12-25T05:09:41.973Z,57.14
2022-12-25T05:10:11.930Z,57.44
2022-12-25T05:10:41.923Z,57.11
2022-12-25T05:11:11.944Z,57.11
2022-12-25T05:11:41.960Z,57.44
2022-12-25T05:12:11.969Z,57.24
2022-12-25T05:12:41.982Z,57.11
2022-12-25T05:13:12.004Z,57.42
2022-12-25T05:13:42.008Z,57.34
2022-12-25T05:14:12.023Z,57.42
2022-12-25T05:14:42.031Z,57.42
2022-12-25T05:15:12.046Z,57.21
2022-12-25T05:15:42.108Z,57.52
2022-12-25T05:16:12.162Z,57.24
2022-12-25T05:16:42.108Z,57.31
2022-12-25T05:17:12.091Z,57.31
2022-12-25T05:17:42.118Z,57.24
2022-12-25T05:18:12.142Z,57.04
2022-12-25T05:18:42.136Z,57.11
2022-12-25T05:19:12.164Z,57.21
2022-12-25T05:19:42.176Z,56.91
2022-12-25T05:20:12.171Z,57.24
2022-12-25T05:20:42.190Z,57.31
2022-12-25T05:21:12.170Z,57.11
2022-12-25T05:21:42.185Z,57.34
2022-12-25T05:22:12.201Z,57.31
2022-12-25T05:22:42.252Z,57.21
2022-12-25T05:23:12.216Z,57.24
2022-12-25T05:23:42.237Z,57.24
2022-12-25T05:24:12.265Z,57.11
2022-12-25T05:24:42.272Z,57.44
2022-12-25T05:25:12.261Z,57.11
2022-12-25T05:25:42.287Z,57.11
2022-12-25T05:26:12.292Z,57.31
2022-12-25T05:26:42.313Z,57.21
2022-12-25T05:27:12.331Z,57.31
2022-12-25T05:27:42.339Z,57.21
2022-12-25T05:28:12.354Z,57.11
2022-12-25T05:28:42.365Z,57.11
2022-12-25T05:29:12.393Z,57.21
2022-12-25T05:29:42.409Z,57.24
2022-12-25T05:30:12.395Z,57.14
2022-12-25T05:30:42.411Z,57.21
2022-12-25T05:31:12.486Z,57.31
2022-12-25T05:31:42.511Z,57.21
2022-12-25T05:32:12.463Z,56.91
2022-12-25T05:32:42.460Z,57.42
2022-12-25T05:33:12.474Z,57.24
2022-12-25T05:33:42.488Z,57.21
2022-12-25T05:34:12.487Z,57.42
2022-12-25T05:34:42.511Z,57.31
2022-12-25T05:35:12.513Z,57.21
2022-12-25T05:35:42.529Z,57.11
2022-12-25T05:36:12.544Z,57.14
2022-12-25T05:36:42.568Z,57.34
2022-12-25T05:37:12.585Z,57.31
2022-12-25T05:37:42.586Z,57.24
2022-12-25T05:38:12.601Z,57.44
2022-12-25T05:38:42.625Z,57.34
2022-12-25T05:39:12.622Z,57.31
2022-12-25T05:39:42.661Z,57.31
2022-12-25T05:40:12.691Z,57.14
2022-12-25T05:40:42.705Z,57.11
2022-12-25T05:41:12.693Z,57.31
2022-12-25T05:41:42.733Z,57.31
2022-12-25T05:42:12.711Z,57.21
2022-12-25T05:42:42.751Z,57.11
2022-12-25T05:43:12.755Z,57.21
2022-12-25T05:43:42.767Z,57.44
2022-12-25T05:44:12.768Z,57.11
2022-12-25T05:44:42.792Z,57.11
2022-12-25T05:45:12.805Z,57.31
2022-12-25T05:45:42.817Z,57.21
2022-12-25T05:46:12.887Z,57.21
2022-12-25T05:46:42.927Z,57.42
2022-12-25T05:47:12.854Z,57.14
2022-12-25T05:47:42.884Z,57.24
2022-12-25T05:48:12.931Z,57.21
2022-12-25T05:48:42.916Z,57.21
2022-12-25T05:49:12.911Z,57.14
2022-12-25T05:49:42.929Z,57.34
2022-12-25T05:50:12.937Z,57.14
2022-12-25T05:50:42.958Z,57.21
2022-12-25T05:51:12.963Z,57.24
2022-12-25T05:51:42.995Z,57.24
2022-12-25T05:52:12.996Z,57.21
2022-12-25T05:52:43.011Z,57.14
2022-12-25T05:53:13.039Z,57.24
2022-12-25T05:53:43.036Z,57.34
2022-12-25T05:54:13.056Z,57.34
2022-12-25T05:54:43.061Z,57.21
2022-12-25T05:55:13.079Z,57.11
2022-12-25T05:55:43.091Z,57.11
2022-12-25T05:56:13.123Z,57.24
2022-12-25T05:56:43.115Z,57.14
2022-12-25T05:57:13.124Z,57.11
2022-12-25T05:57:43.150Z,57.24
2022-12-25T05:58:13.147Z,57.21
2022-12-25T05:58:43.171Z,57.21
2022-12-25T05:59:13.220Z,57.11
2022-12-25T05:59:43.202Z,57.24
2022-12-25T06:00:13.205Z,57.24
2022-12-25T06:00:43.248Z,57.34
2022-12-25T06:01:13.230Z,57.11
2022-12-25T06:01:43.450Z,57.11
2022-12-25T06:02:13.439Z,57.44
2022-12-25T06:02:43.560Z,57.11
2022-12-25T06:03:13.450Z,57.34
2022-12-25T06:03:43.405Z,57.21
2022-12-25T06:04:13.437Z,57.21
2022-12-25T06:04:43.348Z,57.21
2022-12-25T06:05:13.344Z,57.21
2022-12-25T06:05:43.401Z,57.14
2022-12-25T06:06:13.376Z,57.21
2022-12-25T06:06:43.410Z,57.34
2022-12-25T06:07:13.401Z,57.14
2022-12-25T06:07:43.420Z,57.21
2022-12-25T06:08:13.431Z,57.21
2022-12-25T06:08:43.461Z,57.24
2022-12-25T06:09:13.485Z,57.14
2022-12-25T06:09:43.488Z,57.24
2022-12-25T06:10:13.501Z,57.34
2022-12-25T06:10:43.540Z,57.21
2022-12-25T06:11:13.544Z,57.24
2022-12-25T06:11:43.549Z,57.31
2022-12-25T06:12:13.558Z,57.24
2022-12-25T06:12:43.581Z,57.31
2022-12-25T06:13:13.587Z,57.14
2022-12-25T06:13:43.638Z,57.24
2022-12-25T06:14:13.644Z,57.24
2022-12-25T06:14:43.637Z,57.24
2022-12-25T06:15:13.645Z,57.11
2022-12-25T06:15:43.675Z,57.21
2022-12-25T06:16:13.766Z,57.21
2022-12-25T06:16:43.794Z,57.24
2022-12-25T06:17:13.700Z,57.24
2022-12-25T06:17:43.746Z,57.14
2022-12-25T06:18:13.735Z,57.31
2022-12-25T06:18:43.762Z,57.31
2022-12-25T06:19:13.765Z,57.01
2022-12-25T06:19:43.814Z,57.24
2022-12-25T06:20:13.822Z,57.11
2022-12-25T06:20:43.817Z,57.21
2022-12-25T06:21:13.848Z,57.31
2022-12-25T06:21:43.843Z,57.44
2022-12-25T06:22:13.849Z,57.21
2022-12-25T06:22:43.881Z,57.31
2022-12-25T06:23:13.923Z,57.14
2022-12-25T06:23:43.982Z,57.21
2022-12-25T06:24:19.320Z,57.21
2022-12-25T06:24:44.945Z,57.42
2022-12-25T06:25:13.930Z,57.24
2022-12-25T06:25:43.951Z,57.42
2022-12-25T06:26:13.958Z,57.21